createdAt,value
2018-11-06T00:01:09.604Z,94.23
2018-11-06T00:03:44.815Z,94.48
2018-11-06T00:06:15.275Z,94.42
2018-11-06T00:08:45.647Z,94.67
2018-11-06T00:11:16.028Z,94.53
2018-11-06T00:13:46.575Z,94.36
2018-11-06T00:16:16.924Z,94.65
2018-11-06T00:18:47.259Z,94.73
2018-11-06T00:21:17.555Z,94.51
2018-11-06T00:23:48.054Z,94.35
2018-11-06T00:26:18.204Z,94.46
2018-11-06T00:28:48.714Z,94.24
2018-11-06T00:31:19.295Z,94.44
2018-11-06T00:33:49.852Z,94.67
2018-11-06T00:36:20.271Z,94.57
2018-11-06T00:38:50.735Z,94.55
2018-11-06T00:41:20.991Z,94.44
2018-11-06T00:43:53.981Z,94.87
2018-11-06T00:46:24.318Z,94.80
2018-11-06T00:48:54.692Z,94.94
2018-11-06T00:51:25.004Z,94.45
2018-11-06T00:53:55.345Z,95.17
2018-11-06T00:56:25.642Z,94.73
2018-11-06T00:58:56.012Z,95.03
2018-11-06T01:01:26.422Z,95.12
2018-11-06T01:04:01.865Z,95.05
2018-11-06T01:06:32.072Z,95.21
2018-11-06T01:09:02.463Z,95.06
2018-11-06T01:11:32.951Z,95.16
2018-11-06T01:14:03.557Z,95.15
2018-11-06T01:16:34.140Z,95.47
2018-11-06T01:19:04.517Z,95.52
2018-11-06T01:21:34.975Z,95.34
2018-11-06T01:24:05.525Z,95.52
2018-11-06T01:26:36.031Z,95.60
2018-11-06T01:29:06.918Z,95.38
2018-11-06T01:31:37.316Z,95.51
2018-11-06T01:34:07.805Z,95.47
2018-11-06T01:36:38.046Z,95.23
2018-11-06T01:39:10.347Z,95.47
2018-11-06T01:41:40.791Z,95.42
2018-11-06T01:44:11.269Z,95.43
2018-11-06T01:46:42.123Z,95.39
2018-11-06T01:49:12.633Z,95.63
2018-11-06T01:51:43.043Z,95.29
2018-11-06T01:54:13.499Z,95.21
2018-11-06T01:56:43.984Z,95.10
2018-11-06T01:59:14.363Z,95.25
2018-11-06T02:01:44.739Z,95.30
2018-11-06T02:04:14.999Z,95.32
2018-11-06T02:06:45.393Z,95.00
2018-11-06T02:09:15.953Z,95.33
2018-11-06T02:11:46.445Z,95.52
2018-11-06T02:14:16.814Z,95.39
2018-11-06T02:16:46.986Z,95.26
2018-11-06T02:19:17.360Z,95.40
2018-11-06T02:21:47.666Z,95.34
2018-11-06T02:24:18.151Z,95.39
2018-11-06T02:26:48.505Z,95.40
2018-11-06T02:29:19.739Z,95.90
2018-11-06T02:31:50.096Z,95.65
2018-11-06T02:34:21.075Z,95.88
2018-11-06T02:36:51.445Z,95.72
2018-11-06T02:39:22.005Z,95.72
2018-11-06T02:41:52.541Z,95.68
2018-11-06T02:44:22.931Z,95.66
2018-11-06T02:46:53.563Z,95.71
2018-11-06T02:49:24.106Z,95.72
2018-11-06T02:51:54.329Z,95.77
2018-11-06T02:54:24.705Z,95.08
2018-11-06T02:56:55.161Z,95.69
2018-11-06T02:59:25.676Z,95.62
2018-11-06T03:01:56.003Z,95.78
2018-11-06T03:04:26.336Z,95.60
2018-11-06T03:06:56.647Z,95.49
2018-11-06T03:09:27.026Z,95.59
2018-11-06T03:11:57.696Z,95.68
2018-11-06T03:14:27.900Z,96.01
2018-11-06T03:16:58.494Z,95.43
2018-11-06T03:19:28.746Z,95.60
2018-11-06T03:21:59.196Z,95.77
2018-11-06T03:24:29.694Z,95.58
2018-11-06T03:27:01.011Z,96.00
2018-11-06T03:29:31.291Z,96.10
2018-11-06T03:32:01.666Z,95.79
2018-11-06T03:37:08.581Z,96.06
2018-11-06T03:39:38.838Z,95.99
2018-11-06T03:42:09.198Z,96.08
2018-11-06T03:44:39.827Z,95.79
2018-11-06T03:47:10.083Z,96.31
2018-11-06T03:49:40.337Z,95.90
2018-11-06T03:52:10.723Z,95.79
2018-11-06T03:54:41.314Z,96.01
2018-11-06T03:57:11.852Z,95.99
2018-11-06T03:59:42.405Z,95.81
2018-11-06T04:02:12.728Z,95.96
2018-11-06T04:04:43.114Z,96.20
2018-11-06T04:07:13.439Z,96.03
2018-11-06T04:09:43.676Z,96.15
2018-11-06T04:12:14.067Z,95.93
2018-11-06T04:14:43.786Z,95.89
2018-11-06T04:17:14.013Z,95.84
2018-11-06T04:19:44.399Z,95.85
2018-11-06T04:22:14.786Z,95.90
2018-11-06T04:24:45.136Z,95.72
2018-11-06T04:27:15.547Z,95.62
2018-11-06T04:29:46.021Z,95.89
2018-11-06T04:32:16.517Z,95.66
2018-11-06T04:34:47.024Z,95.95
2018-11-06T04:37:17.348Z,95.84
2018-11-06T04:39:47.825Z,95.58
2018-11-06T04:42:18.164Z,95.71
2018-11-06T04:44:48.731Z,95.50
2018-11-06T04:47:19.317Z,95.19
2018-11-06T04:49:49.673Z,95.70
2018-11-06T04:52:20.027Z,95.68
2018-11-06T04:54:50.347Z,95.50
2018-11-06T04:57:20.929Z,95.30
2018-11-06T04:59:51.412Z,95.82
2018-11-06T05:02:21.864Z,95.74
2018-11-06T05:04:52.447Z,95.71
2018-11-06T05:07:22.720Z,95.63
2018-11-06T05:09:53.003Z,95.61
2018-11-06T05:12:23.277Z,95.53
2018-11-06T05:14:53.771Z,95.21
2018-11-06T05:17:23.956Z,95.53
2018-11-06T05:19:54.316Z,95.31
2018-11-06T05:22:24.691Z,95.22
2018-11-06T05:24:55.273Z,95.90
2018-11-06T05:27:25.835Z,95.10
2018-11-06T05:29:56.278Z,95.53
2018-11-06T05:32:26.648Z,95.47
2018-11-06T05:34:57.119Z,95.29
2018-11-06T05:37:27.637Z,95.54
2018-11-06T05:40:14.526Z,95.57
2018-11-06T05:42:44.731Z,95.38
2018-11-06T05:45:15.387Z,95.50
2018-11-06T05:47:45.448Z,95.33
2018-11-06T05:50:15.512Z,95.08
2018-11-06T05:52:45.639Z,95.35
2018-11-06T05:55:15.808Z,95.57
2018-11-06T05:57:45.811Z,95.38
2018-11-06T06:00:15.916Z,95.35
2018-11-06T06:02:46.358Z,95.62
2018-11-06T06:05:16.735Z,95.53
2018-11-06T06:07:47.194Z,95.47
2018-11-06T06:10:17.647Z,95.55
2018-11-06T06:12:48.093Z,95.43
2018-11-06T06:15:18.493Z,95.31
2018-11-06T06:17:48.824Z,95.41
2018-11-06T06:20:19.259Z,95.46
2018-11-06T06:22:49.751Z,95.51
2018-11-06T06:25:20.163Z,95.53
2018-11-06T06:27:50.536Z,95.54
2018-11-06T06:30:21.117Z,95.62
2018-11-06T06:32:51.599Z,95.53
2018-11-06T06:35:22.188Z,95.73
2018-11-06T06:37:52.580Z,95.44
2018-11-06T06:40:23.041Z,95.28
2018-11-06T06:42:53.305Z,95.54
2018-11-06T06:45:24.638Z,95.35
2018-11-06T06:47:54.959Z,95.10
2018-11-06T06:50:25.460Z,94.87
2018-11-06T06:52:55.662Z,95.00
2018-11-06T06:55:26.015Z,94.76
2018-11-06T06:57:56.460Z,94.61
2018-11-06T07:00:26.891Z,94.17
2018-11-06T07:02:57.082Z,93.87
2018-11-06T07:05:27.652Z,93.41
2018-11-06T07:07:57.960Z,92.74
2018-11-06T07:10:28.847Z,90.68
2018-11-06T07:12:59.445Z,86.69
2018-11-06T07:15:29.784Z,81.58
2018-11-06T07:18:00.191Z,80.49
2018-11-06T07:20:30.510Z,78.66
2018-11-06T07:23:00.741Z,77.93
2018-11-06T07:25:31.110Z,75.62
2018-11-06T07:28:01.355Z,76.89
2018-11-06T07:30:31.968Z,76.74
2018-11-06T07:33:02.593Z,76.59
2018-11-06T07:35:34.074Z,76.00
2018-11-06T07:38:04.351Z,74.47
2018-11-06T07:40:34.883Z,74.19
2018-11-06T07:43:05.220Z,72.61
2018-11-06T07:45:35.667Z,72.25
2018-11-06T07:48:06.201Z,71.95
2018-11-06T07:50:36.527Z,72.41
2018-11-06T07:53:07.033Z,71.76
2018-11-06T07:55:38.023Z,71.13
2018-11-06T07:58:08.533Z,72.48
2018-11-06T08:00:39.015Z,70.18
2018-11-06T08:03:09.479Z,71.58
2018-11-06T08:05:39.856Z,72.53
2018-11-06T08:08:10.199Z,74.04
2018-11-06T08:10:40.674Z,73.13
2018-11-06T08:13:11.095Z,74.50
2018-11-06T08:15:41.705Z,75.16
2018-11-06T08:18:11.936Z,73.24
2018-11-06T08:20:42.291Z,75.27
2018-11-06T08:23:12.519Z,76.72
2018-11-06T08:25:42.847Z,76.52
2018-11-06T08:28:13.190Z,76.30
2018-11-06T08:30:43.696Z,77.01
2018-11-06T08:33:14.132Z,77.49
2018-11-06T08:35:44.477Z,75.93
2018-11-06T08:38:14.663Z,75.49
2018-11-06T08:40:45.150Z,74.38
2018-11-06T08:43:15.563Z,74.10
2018-11-06T08:45:45.805Z,74.08
2018-11-06T08:48:16.080Z,74.45
2018-11-06T08:50:46.616Z,72.56
2018-11-06T08:53:17.200Z,72.41
2018-11-06T08:55:47.743Z,72.19
2018-11-06T08:58:18.064Z,70.56
2018-11-06T09:00:48.485Z,72.65
2018-11-06T09:03:18.841Z,72.86
2018-11-06T09:05:49.264Z,73.88
2018-11-06T09:08:19.648Z,74.26
2018-11-06T09:10:49.905Z,75.13
2018-11-06T09:13:20.271Z,76.27
2018-11-06T09:15:50.824Z,77.10
2018-11-06T09:18:21.279Z,77.86
2018-11-06T09:20:51.815Z,76.98
2018-11-06T09:23:22.008Z,78.02
2018-11-06T09:25:52.400Z,78.32
2018-11-06T09:28:22.895Z,79.11
2018-11-06T09:30:53.576Z,78.58
2018-11-06T09:33:23.963Z,78.38
2018-11-06T09:35:54.191Z,77.99
2018-11-06T09:38:24.590Z,78.45
2018-11-06T09:40:55.052Z,76.57
2018-11-06T09:43:25.385Z,77.73
2018-11-06T09:45:55.951Z,77.91
2018-11-06T09:48:26.223Z,77.05
2018-11-06T09:50:56.698Z,77.11
2018-11-06T09:53:27.013Z,76.24
2018-11-06T09:55:57.462Z,76.89
2018-11-06T09:58:27.835Z,75.91
2018-11-06T10:00:58.309Z,76.27
2018-11-06T10:03:28.610Z,77.41
2018-11-06T10:05:59.173Z,76.53
2018-11-06T10:08:31.550Z,77.24
2018-11-06T10:11:02.107Z,78.10
2018-11-06T10:13:32.691Z,76.69
2018-11-06T10:16:03.048Z,76.80
2018-11-06T10:18:33.325Z,76.04
2018-11-06T10:21:03.825Z,77.04
2018-11-06T10:23:34.302Z,76.90
2018-11-06T10:26:04.898Z,76.68
2018-11-06T10:28:35.473Z,76.92
2018-11-06T10:31:06.158Z,76.53
2018-11-06T10:33:36.640Z,75.71
2018-11-06T10:36:07.199Z,75.94
2018-11-06T10:38:37.488Z,75.79
2018-11-06T10:41:08.096Z,75.58
2018-11-06T10:43:38.638Z,75.66
2018-11-06T10:46:10.085Z,75.05
2018-11-06T10:48:40.898Z,75.51
2018-11-06T10:51:11.411Z,75.96
2018-11-06T10:53:41.719Z,75.48
2018-11-06T10:56:13.032Z,75.51
2018-11-06T10:58:44.226Z,76.20
2018-11-06T11:01:19.716Z,75.64
2018-11-06T11:03:55.025Z,75.40
2018-11-06T11:06:25.383Z,75.77
2018-11-06T11:08:55.699Z,75.48
2018-11-06T11:11:26.143Z,74.26
2018-11-06T11:13:56.503Z,74.82
2018-11-06T11:16:27.039Z,75.88
2018-11-06T11:18:57.260Z,74.94
2018-11-06T11:21:27.772Z,75.44
2018-11-06T11:23:58.255Z,75.63
2018-11-06T11:26:28.820Z,74.90
2018-11-06T11:28:59.427Z,74.50
2018-11-06T11:31:30.028Z,74.29
2018-11-06T11:34:00.270Z,74.37
2018-11-06T11:36:30.743Z,74.29
2018-11-06T11:39:01.129Z,74.44
2018-11-06T11:41:31.630Z,74.90
2018-11-06T11:44:02.172Z,74.55
2018-11-06T11:46:32.384Z,74.27
2018-11-06T11:49:02.972Z,74.64
2018-11-06T11:51:33.479Z,74.03
2018-11-06T11:54:03.850Z,73.80
2018-11-06T11:56:34.300Z,73.55
2018-11-06T11:59:05.235Z,72.81
2018-11-06T12:01:35.587Z,72.67
2018-11-06T12:04:06.707Z,72.75
2018-11-06T12:06:36.928Z,72.43
2018-11-06T12:09:10.267Z,72.40
2018-11-06T12:11:40.862Z,72.22
2018-11-06T12:14:11.339Z,71.96
2018-11-06T12:16:41.884Z,72.79
2018-11-06T12:19:12.348Z,72.44
2018-11-06T12:21:42.836Z,73.16
2018-11-06T12:24:13.377Z,73.16
2018-11-06T12:26:43.774Z,73.37
2018-11-06T12:29:14.054Z,73.31
2018-11-06T12:31:44.814Z,73.14
2018-11-06T12:34:15.249Z,71.95
2018-11-06T12:36:45.603Z,72.31
2018-11-06T12:39:16.219Z,70.44
2018-11-06T12:41:46.762Z,70.05
2018-11-06T12:44:17.180Z,69.59
2018-11-06T12:46:47.427Z,69.48
2018-11-06T12:49:17.988Z,69.10
2018-11-06T12:51:48.401Z,70.06
2018-11-06T12:54:18.788Z,68.44
2018-11-06T12:56:49.072Z,69.13
2018-11-06T12:59:19.649Z,69.60
2018-11-06T13:01:50.239Z,69.99
2018-11-06T13:04:20.804Z,68.29
2018-11-06T13:06:51.279Z,68.79
2018-11-06T13:09:21.540Z,68.33
2018-11-06T13:11:51.903Z,69.47
2018-11-06T13:14:22.309Z,69.76
2018-11-06T13:16:52.910Z,69.59
2018-11-06T13:19:23.418Z,68.62
2018-11-06T13:21:53.827Z,68.95
2018-11-06T13:24:24.151Z,69.07
2018-11-06T13:26:54.662Z,69.13
2018-11-06T13:29:25.094Z,68.93
2018-11-06T13:31:55.595Z,69.66
2018-11-06T13:34:26.055Z,69.52
2018-11-06T13:36:56.658Z,69.37
2018-11-06T13:39:26.948Z,69.33
2018-11-06T13:41:57.317Z,69.55
2018-11-06T13:44:28.000Z,71.18
2018-11-06T13:46:58.862Z,71.02
2018-11-06T13:49:29.185Z,71.00
2018-11-06T13:51:59.589Z,72.57
2018-11-06T13:54:30.039Z,72.13
2018-11-06T13:57:00.263Z,72.96
2018-11-06T13:59:30.673Z,72.60
2018-11-06T14:02:01.216Z,73.60
2018-11-06T14:04:31.662Z,73.20
2018-11-06T14:07:02.407Z,73.42
2018-11-06T14:09:32.596Z,73.86
2018-11-06T14:12:02.873Z,74.34
2018-11-06T14:14:33.289Z,75.34
2018-11-06T14:17:03.675Z,75.22
2018-11-06T14:19:34.066Z,76.21
2018-11-06T14:22:04.440Z,75.79
2018-11-06T14:24:34.698Z,76.71
2018-11-06T14:27:05.118Z,76.60
2018-11-06T14:29:35.344Z,77.09
2018-11-06T14:32:05.736Z,77.85
2018-11-06T14:34:36.326Z,77.86
2018-11-06T14:37:07.064Z,78.09
2018-11-06T14:39:37.480Z,78.74
2018-11-06T14:42:08.186Z,79.15
2018-11-06T14:44:38.544Z,79.73
2018-11-06T14:47:09.137Z,79.26
2018-11-06T14:49:39.632Z,79.46
2018-11-06T14:52:10.111Z,78.63
2018-11-06T14:54:40.603Z,79.05
2018-11-06T14:57:11.059Z,79.77
2018-11-06T14:59:42.340Z,79.60
2018-11-06T15:02:12.819Z,79.99
2018-11-06T15:04:43.228Z,80.70
2018-11-06T15:07:13.720Z,80.62
2018-11-06T15:09:44.188Z,81.38
2018-11-06T15:12:14.650Z,81.43
2018-11-06T15:14:45.131Z,81.51
2018-11-06T15:17:15.972Z,81.98
2018-11-06T15:19:46.427Z,81.17
2018-11-06T15:22:17.011Z,81.25
2018-11-06T15:24:47.516Z,81.19
2018-11-06T15:27:17.760Z,81.87
2018-11-06T15:29:48.144Z,81.91
2018-11-06T15:32:18.759Z,81.98
2018-11-06T15:34:49.215Z,80.83
2018-11-06T15:37:19.580Z,81.20
2018-11-06T15:39:49.972Z,81.43
2018-11-06T15:42:20.883Z,81.00
2018-11-06T15:44:51.324Z,81.11
2018-11-06T15:47:21.756Z,81.66
2018-11-06T15:49:52.207Z,82.07
2018-11-06T15:52:23.116Z,81.58
2018-11-06T15:54:53.565Z,81.75
2018-11-06T15:57:24.173Z,81.39
2018-11-06T15:59:54.675Z,81.37
2018-11-06T16:02:25.017Z,81.51
2018-11-06T16:04:55.404Z,82.09
2018-11-06T16:07:25.664Z,81.74
2018-11-06T16:09:56.178Z,82.78
2018-11-06T16:12:26.533Z,82.89
2018-11-06T16:14:56.807Z,82.59
2018-11-06T16:17:27.303Z,82.24
2018-11-06T16:19:57.768Z,82.69
2018-11-06T16:22:28.362Z,83.03
2018-11-06T16:24:58.774Z,83.35
2018-11-06T16:27:29.302Z,82.62
2018-11-06T16:30:00.026Z,82.68
2018-11-06T16:32:30.417Z,82.74
2018-11-06T16:35:00.889Z,82.44
2018-11-06T16:37:31.364Z,81.90
2018-11-06T16:40:01.841Z,82.54
2018-11-06T16:42:32.207Z,82.61
2018-11-06T16:45:02.668Z,82.89
2018-11-06T16:47:33.055Z,83.00
2018-11-06T16:50:03.481Z,83.37
2018-11-06T16:52:33.822Z,83.72
2018-11-06T16:55:04.235Z,83.90
2018-11-06T16:57:34.668Z,84.06
2018-11-06T17:00:05.642Z,83.37
2018-11-06T17:02:37.312Z,84.04
2018-11-06T17:05:09.889Z,83.98
2018-11-06T17:07:40.472Z,83.41
2018-11-06T17:10:12.655Z,83.62
2018-11-06T17:12:43.137Z,83.99
2018-11-06T17:15:17.075Z,83.28
2018-11-06T17:17:48.420Z,83.60
2018-11-06T17:20:19.241Z,82.93
2018-11-06T17:22:49.773Z,82.12
2018-11-06T17:25:21.279Z,82.46
2018-11-06T17:27:51.541Z,81.72
2018-11-06T17:30:22.004Z,81.29
2018-11-06T17:32:52.634Z,81.73
2018-11-06T17:35:23.091Z,82.02
2018-11-06T17:37:53.543Z,81.05
2018-11-06T17:40:23.831Z,81.48
2018-11-06T17:42:54.323Z,81.46
2018-11-06T17:45:25.397Z,81.53
2018-11-06T17:47:55.995Z,82.59
2018-11-06T17:50:26.347Z,82.57
2018-11-06T17:52:56.888Z,83.59
2018-11-06T17:55:27.379Z,84.06
2018-11-06T17:57:57.960Z,84.30
2018-11-06T18:00:28.446Z,84.82
2018-11-06T18:02:58.940Z,85.38
2018-11-06T18:05:29.379Z,84.67
2018-11-06T18:07:59.840Z,85.22
2018-11-06T18:10:31.055Z,85.12
2018-11-06T18:13:01.432Z,84.63
2018-11-06T18:15:32.060Z,85.11
2018-11-06T18:18:02.703Z,84.53
2018-11-06T18:20:32.860Z,84.65
2018-11-06T18:23:03.579Z,85.32
2018-11-06T18:25:33.974Z,84.60
2018-11-06T18:28:04.528Z,84.05
2018-11-06T18:30:34.924Z,83.07
2018-11-06T18:33:05.297Z,83.34
2018-11-06T18:35:35.555Z,83.36
2018-11-06T18:38:06.265Z,83.87
2018-11-06T18:40:36.660Z,83.85
2018-11-06T18:43:07.328Z,83.84
2018-11-06T18:45:37.834Z,84.60
2018-11-06T18:48:08.415Z,85.40
2018-11-06T18:50:38.627Z,84.94
2018-11-06T18:53:09.141Z,84.95
2018-11-06T18:55:39.529Z,85.24
2018-11-06T18:58:10.147Z,85.83
2018-11-06T19:00:40.390Z,86.13
2018-11-06T19:03:10.661Z,86.39
2018-11-06T19:05:41.155Z,86.55
2018-11-06T19:08:12.107Z,86.87
2018-11-06T19:10:42.680Z,87.12
2018-11-06T19:13:13.274Z,87.30
2018-11-06T19:15:43.601Z,87.40
2018-11-06T19:18:13.953Z,87.23
2018-11-06T19:20:44.325Z,87.98
2018-11-06T19:23:14.739Z,87.85
2018-11-06T19:25:45.320Z,88.50
2018-11-06T19:28:16.377Z,87.94
2018-11-06T19:30:46.896Z,88.33
2018-11-06T19:33:18.019Z,88.45
2018-11-06T19:35:48.549Z,87.94
2018-11-06T19:38:19.086Z,88.20
2018-11-06T19:40:49.453Z,88.36
2018-11-06T19:43:19.792Z,88.60
2018-11-06T19:45:50.279Z,89.09
2018-11-06T19:48:20.821Z,88.81
2018-11-06T19:50:51.571Z,88.79
2018-11-06T19:53:22.340Z,88.44
2018-11-06T19:55:52.680Z,88.38
2018-11-06T19:58:23.318Z,88.47
2018-11-06T20:00:53.699Z,88.63
2018-11-06T20:03:24.105Z,88.87
2018-11-06T20:05:54.693Z,89.68
2018-11-06T20:08:25.224Z,89.90
2018-11-06T20:10:55.645Z,90.16
2018-11-06T20:13:26.078Z,90.43
2018-11-06T20:15:56.482Z,89.99
2018-11-06T20:18:26.852Z,90.97
2018-11-06T20:20:57.352Z,90.58
2018-11-06T20:23:27.866Z,91.25
2018-11-06T20:25:58.340Z,90.47
2018-11-06T20:28:28.808Z,90.69
2018-11-06T20:30:59.060Z,90.56
2018-11-06T20:33:29.594Z,89.74
2018-11-06T20:36:00.012Z,89.46
2018-11-06T20:38:30.608Z,89.73
2018-11-06T20:41:01.106Z,89.39
2018-11-06T20:43:31.708Z,89.81
2018-11-06T20:46:02.110Z,90.21
2018-11-06T20:48:32.560Z,89.91
2018-11-06T20:51:03.139Z,90.33
2018-11-06T20:53:33.690Z,90.26
2018-11-06T20:56:04.174Z,90.51
2018-11-06T20:58:34.676Z,90.09
2018-11-06T21:01:05.192Z,90.51
2018-11-06T21:03:36.691Z,91.18
2018-11-06T21:06:07.137Z,90.87
2018-11-06T21:08:37.435Z,91.03
2018-11-06T21:11:07.988Z,91.16
2018-11-06T21:13:38.363Z,90.94
2018-11-06T21:16:08.674Z,91.01
2018-11-06T21:18:39.176Z,90.55
2018-11-06T21:21:13.516Z,90.64
2018-11-06T21:23:45.125Z,91.42
2018-11-06T21:26:15.595Z,91.11
2018-11-06T21:28:45.849Z,91.12
2018-11-06T21:31:16.201Z,91.46
2018-11-06T21:33:46.826Z,92.10
2018-11-06T21:36:16.987Z,91.55
2018-11-06T21:38:47.411Z,91.40
2018-11-06T21:41:17.862Z,91.11
2018-11-06T21:43:48.439Z,90.95
2018-11-06T21:46:18.757Z,90.91
2018-11-06T21:48:49.253Z,90.68
2018-11-06T21:51:19.593Z,91.03
2018-11-06T21:53:49.967Z,90.04
2018-11-06T21:56:20.481Z,90.35
2018-11-06T21:58:50.901Z,90.31
2018-11-06T22:01:21.101Z,90.01
2018-11-06T22:03:51.604Z,90.18
2018-11-06T22:06:22.088Z,90.31
2018-11-06T22:08:52.575Z,90.04
2018-11-06T22:11:23.157Z,90.01
2018-11-06T22:13:53.515Z,89.98
2018-11-06T22:16:23.938Z,90.49
2018-11-06T22:18:54.273Z,89.92
2018-11-06T22:21:24.633Z,90.26
2018-11-06T22:23:54.912Z,90.09
2018-11-06T22:26:25.331Z,90.28
2018-11-06T22:28:55.807Z,90.43
2018-11-06T22:31:26.409Z,90.64
2018-11-06T22:33:56.899Z,90.93
2018-11-06T22:36:27.296Z,90.96
2018-11-06T22:38:57.604Z,90.99
2018-11-06T22:41:28.007Z,91.39
2018-11-06T22:43:58.399Z,92.18
2018-11-06T22:46:28.648Z,92.27
2018-11-06T22:48:58.912Z,92.02
2018-11-06T22:51:29.239Z,92.84
2018-11-06T22:53:59.729Z,93.07
2018-11-06T22:56:30.179Z,93.52
2018-11-06T22:59:00.559Z,93.74
2018-11-06T23:01:30.845Z,93.32
2018-11-06T23:48:35.616Z,91.97
2018-11-06T23:51:05.973Z,92.07
2018-11-06T23:53:36.356Z,91.39
2018-11-06T23:56:06.683Z,91.39
2018-11-06T23:58:37.026Z,91.46
